createdAt,value
2022-10-31T00:01:31.227Z,4.53
2022-10-31T00:03:58.707Z,5.30
2022-10-31T00:06:26.223Z,5.20
2022-10-31T00:08:57.446Z,5.38
2022-10-31T00:11:25.454Z,6.50
2022-10-31T00:13:53.194Z,5.63
2022-10-31T00:16:25.102Z,4.78
2022-10-31T00:19:01.034Z,4.55
2022-10-31T00:21:29.927Z,4.43
2022-10-31T00:23:58.484Z,4.95
2022-10-31T00:26:26.139Z,5.28
2022-10-31T00:28:53.592Z,5.45
2022-10-31T00:31:21.052Z,4.95
2022-10-31T00:33:48.504Z,4.93
2022-10-31T00:36:18.221Z,5.43
2022-10-31T00:38:46.702Z,6.10
2022-10-31T00:41:16.353Z,5.53
2022-10-31T00:43:45.067Z,5.78
2022-10-31T00:46:13.572Z,5.65
2022-10-31T00:48:41.445Z,6.30
2022-10-31T00:51:09.567Z,5.63
2022-10-31T00:53:37.120Z,4.57
2022-10-31T00:56:04.908Z,6.15
2022-10-31T00:58:32.525Z,5.55
2022-10-31T01:01:00.196Z,4.68
2022-10-31T01:03:31.222Z,5.90
2022-10-31T01:06:16.912Z,5.53
2022-10-31T01:08:44.500Z,5.68
2022-10-31T01:11:18.440Z,6.10
2022-10-31T01:13:46.902Z,6.18
2022-10-31T01:16:18.008Z,5.55
2022-10-31T01:18:45.943Z,5.68
2022-10-31T01:21:25.105Z,5.25
2022-10-31T01:23:55.015Z,4.65
2022-10-31T01:26:34.428Z,5.97
2022-10-31T01:29:06.328Z,5.13
2022-10-31T01:31:39.491Z,5.03
2022-10-31T01:34:07.829Z,5.68
2022-10-31T01:36:39.928Z,5.47
2022-10-31T01:39:10.548Z,5.22
2022-10-31T01:41:41.318Z,5.53
2022-10-31T01:44:17.862Z,5.70
2022-10-31T01:47:05.964Z,5.65
2022-10-31T01:49:39.565Z,5.80
2022-10-31T01:52:32.406Z,6.18
2022-10-31T01:55:07.057Z,6.93
2022-10-31T01:57:37.339Z,7.03
2022-10-31T02:00:09.956Z,7.70
2022-10-31T02:02:38.109Z,6.80
2022-10-31T02:05:09.842Z,7.22
2022-10-31T02:08:00.585Z,5.90
2022-10-31T02:10:29.420Z,8.10
2022-10-31T02:13:00.457Z,7.82
2022-10-31T02:15:28.430Z,6.85
2022-10-31T02:17:56.144Z,7.97
2022-10-31T02:20:26.932Z,7.78
2022-10-31T02:23:25.378Z,6.80
2022-10-31T02:26:10.762Z,6.80
2022-10-31T02:29:02.057Z,7.97
2022-10-31T02:31:50.681Z,7.32
2022-10-31T02:34:18.061Z,8.18
2022-10-31T02:36:58.726Z,8.55
2022-10-31T02:39:34.029Z,9.05
2022-10-31T02:42:50.873Z,8.02
2022-10-31T02:45:37.059Z,9.10
2022-10-31T02:48:14.108Z,10.70
2022-10-31T02:50:46.272Z,11.00
2022-10-31T02:53:16.932Z,10.45
2022-10-31T02:55:51.066Z,10.85
2022-10-31T02:58:23.333Z,11.77
2022-10-31T03:03:57.047Z,10.70
2022-10-31T03:07:07.171Z,11.77
2022-10-31T03:09:59.171Z,13.50
2022-10-31T03:12:30.465Z,13.38
2022-10-31T03:15:34.301Z,14.82
2022-10-31T03:18:17.661Z,15.85
2022-10-31T03:20:55.493Z,14.18
2022-10-31T03:23:24.922Z,14.45
2022-10-31T03:25:55.864Z,14.10
2022-10-31T03:28:30.576Z,13.77
2022-10-31T03:31:02.269Z,15.63
2022-10-31T03:33:42.577Z,16.67
2022-10-31T03:36:13.441Z,16.95
2022-10-31T03:38:43.375Z,17.70
2022-10-31T03:41:15.945Z,19.52
2022-10-31T03:43:53.716Z,18.52
2022-10-31T03:46:21.617Z,18.25
2022-10-31T03:48:49.554Z,18.30
2022-10-31T03:51:20.975Z,17.20
2022-10-31T03:54:22.768Z,15.47
2022-10-31T03:57:05.637Z,18.55
2022-10-31T03:59:46.853Z,17.63
2022-10-31T04:02:18.962Z,19.05
2022-10-31T04:04:48.358Z,19.20
2022-10-31T04:07:17.134Z,19.27
2022-10-31T04:09:48.393Z,19.70
2022-10-31T04:12:18.506Z,18.42
2022-10-31T04:14:49.836Z,17.95
2022-10-31T04:17:20.917Z,18.70
2022-10-31T04:19:48.437Z,18.75
2022-10-31T04:22:15.950Z,16.02
2022-10-31T04:24:43.455Z,16.83
2022-10-31T04:27:13.474Z,18.38
2022-10-31T04:29:41.103Z,18.83
2022-10-31T04:32:08.621Z,17.77
2022-10-31T04:34:36.096Z,18.58
2022-10-31T04:37:03.568Z,19.77
2022-10-31T04:39:31.028Z,18.00
2022-10-31T04:41:58.482Z,17.83
2022-10-31T04:44:25.929Z,19.42
2022-10-31T04:46:53.360Z,17.85
2022-10-31T04:49:20.806Z,20.20
2022-10-31T04:51:48.263Z,20.20
2022-10-31T04:54:15.741Z,18.65
2022-10-31T04:56:43.221Z,20.00
2022-10-31T04:59:10.678Z,19.85
2022-10-31T05:01:38.285Z,19.30
2022-10-31T05:04:05.828Z,19.45
2022-10-31T05:06:33.264Z,18.27
2022-10-31T05:09:00.726Z,19.60
2022-10-31T05:11:28.152Z,18.70
2022-10-31T05:13:55.608Z,17.48
2022-10-31T05:16:23.040Z,18.80
2022-10-31T05:18:50.495Z,16.60
2022-10-31T05:21:17.953Z,16.98
2022-10-31T05:23:47.592Z,18.35
2022-10-31T05:26:16.135Z,18.65
2022-10-31T05:28:43.573Z,18.48
2022-10-31T05:31:11.051Z,17.17
2022-10-31T05:33:38.529Z,17.90
2022-10-31T05:36:06.393Z,16.73
2022-10-31T05:38:33.851Z,18.08
2022-10-31T05:41:02.068Z,18.30
2022-10-31T05:43:30.140Z,17.90
2022-10-31T05:45:58.235Z,18.30
2022-10-31T05:48:25.720Z,19.83
2022-10-31T05:50:53.187Z,19.50
2022-10-31T05:53:20.705Z,19.83
2022-10-31T05:55:48.545Z,17.88
2022-10-31T05:58:16.117Z,21.35
2022-10-31T06:00:43.541Z,19.50
2022-10-31T06:03:11.796Z,20.88
2022-10-31T06:05:39.346Z,20.20
2022-10-31T06:08:07.133Z,19.38
2022-10-31T06:10:34.617Z,21.17
2022-10-31T06:13:02.142Z,21.67
2022-10-31T06:15:29.618Z,21.77
2022-10-31T06:18:05.337Z,23.48
2022-10-31T06:20:33.967Z,23.77
2022-10-31T06:23:02.266Z,24.60
2022-10-31T06:25:30.490Z,24.52
2022-10-31T06:27:58.316Z,25.40
2022-10-31T06:30:25.795Z,25.33
2022-10-31T06:32:53.404Z,23.25
2022-10-31T06:35:20.947Z,23.38
2022-10-31T06:37:56.017Z,21.27
2022-10-31T06:40:23.817Z,20.80
2022-10-31T06:43:02.076Z,19.90
2022-10-31T06:45:30.440Z,20.15
2022-10-31T06:50:46.222Z,20.38
2022-10-31T06:53:15.146Z,18.15
2022-10-31T06:55:43.275Z,17.58
2022-10-31T06:58:12.047Z,18.67
2022-10-31T07:00:39.612Z,17.77
2022-10-31T07:03:14.586Z,18.35
2022-10-31T07:05:42.183Z,19.23
2022-10-31T07:08:13.274Z,18.45
2022-10-31T07:10:42.865Z,16.35
2022-10-31T07:13:15.148Z,16.73
2022-10-31T07:18:12.715Z,15.13
2022-10-31T07:20:40.472Z,16.55
2022-10-31T07:23:07.934Z,16.33
2022-10-31T07:25:35.400Z,19.13
2022-10-31T07:28:03.228Z,16.95
2022-10-31T07:30:31.391Z,17.20
2022-10-31T07:32:59.291Z,16.63
2022-10-31T07:35:29.327Z,16.55
2022-10-31T07:37:57.290Z,16.48
2022-10-31T07:40:26.449Z,18.48
2022-10-31T07:42:55.114Z,19.10
2022-10-31T07:45:22.930Z,20.48
2022-10-31T07:47:52.488Z,18.55
2022-10-31T07:50:34.720Z,17.80
2022-10-31T07:53:10.446Z,20.13
2022-10-31T07:55:38.969Z,20.63
2022-10-31T07:58:08.875Z,19.27
2022-10-31T08:00:37.773Z,17.67
2022-10-31T08:03:10.899Z,15.98
2022-10-31T08:05:39.390Z,16.63
2022-10-31T08:08:07.353Z,17.25
2022-10-31T08:10:36.143Z,17.92
2022-10-31T08:13:13.631Z,16.13
2022-10-31T08:15:43.109Z,16.92
2022-10-31T08:18:15.852Z,18.65
2022-10-31T08:20:44.705Z,17.80
2022-10-31T08:23:13.915Z,16.25
2022-10-31T08:25:42.817Z,15.77
2022-10-31T08:28:12.772Z,14.98
2022-10-31T08:30:41.339Z,15.00
2022-10-31T08:33:13.194Z,17.48
2022-10-31T08:35:41.286Z,19.08
2022-10-31T08:38:11.365Z,15.65
2022-10-31T08:40:39.103Z,15.60
2022-10-31T08:43:14.960Z,16.48
2022-10-31T08:45:43.501Z,16.73
2022-10-31T08:48:16.633Z,16.17
2022-10-31T08:50:45.817Z,16.55
2022-10-31T08:53:16.147Z,16.45
2022-10-31T08:55:45.192Z,18.45
2022-10-31T08:58:18.234Z,17.55
2022-10-31T09:00:47.484Z,19.02
2022-10-31T09:03:18.565Z,18.33
2022-10-31T09:05:46.812Z,19.23
2022-10-31T09:08:16.882Z,17.38
2022-10-31T09:10:45.600Z,19.85
2022-10-31T09:13:15.225Z,20.23
2022-10-31T09:15:45.524Z,18.50
2022-10-31T09:18:14.834Z,19.05
2022-10-31T09:20:43.684Z,19.50
2022-10-31T09:23:14.146Z,17.33
2022-10-31T09:25:47.591Z,20.48
2022-10-31T09:28:20.933Z,18.75
2022-10-31T09:30:50.319Z,16.45
2022-10-31T09:33:18.231Z,17.05
2022-10-31T09:35:45.944Z,19.50
2022-10-31T09:38:16.016Z,17.85
2022-10-31T09:40:45.330Z,19.38
2022-10-31T09:43:30.619Z,18.30
2022-10-31T09:46:07.445Z,20.15
2022-10-31T09:48:48.155Z,19.05
2022-10-31T09:51:22.241Z,20.10
2022-10-31T09:53:55.982Z,19.15
2022-10-31T09:56:25.294Z,18.52
2022-10-31T09:58:56.945Z,19.02
2022-10-31T10:01:30.428Z,20.02
2022-10-31T10:04:04.913Z,18.95
2022-10-31T10:06:40.317Z,19.20
2022-10-31T10:09:11.304Z,18.30
2022-10-31T10:11:39.251Z,18.00
2022-10-31T10:14:37.253Z,19.05
2022-10-31T10:17:29.645Z,18.02
2022-10-31T10:20:24.223Z,17.15
2022-10-31T10:23:03.909Z,17.05
2022-10-31T10:25:42.757Z,16.00
2022-10-31T10:28:28.031Z,15.45
2022-10-31T10:31:02.434Z,15.70
2022-10-31T10:33:38.816Z,15.23
2022-10-31T10:36:16.760Z,14.35
2022-10-31T10:38:56.207Z,12.75
2022-10-31T10:41:29.326Z,14.38
2022-10-31T10:43:59.602Z,15.25
2022-10-31T10:46:52.857Z,12.80
2022-10-31T10:49:30.313Z,13.25
2022-10-31T10:52:35.279Z,13.48
2022-10-31T10:55:14.960Z,14.30
2022-10-31T10:57:57.800Z,13.50
2022-10-31T11:00:33.948Z,13.90
2022-10-31T11:03:01.981Z,13.35
2022-10-31T11:05:45.926Z,12.60
2022-10-31T11:08:27.452Z,14.63
2022-10-31T11:11:06.160Z,12.00
2022-10-31T11:13:35.420Z,11.93
2022-10-31T11:16:06.623Z,12.75
2022-10-31T11:18:41.974Z,13.43
2022-10-31T11:21:23.487Z,14.32
2022-10-31T11:23:50.909Z,13.65
2022-10-31T11:26:22.121Z,14.10
2022-10-31T11:28:59.872Z,14.40
2022-10-31T11:31:29.417Z,14.30
2022-10-31T11:34:05.828Z,15.07
2022-10-31T11:36:37.380Z,14.88
2022-10-31T11:39:07.658Z,16.30
2022-10-31T11:41:39.423Z,16.33
2022-10-31T11:44:12.473Z,16.75
2022-10-31T11:46:43.519Z,17.42
2022-10-31T11:49:34.741Z,16.73
2022-10-31T11:52:33.104Z,17.67
2022-10-31T11:55:04.039Z,17.17
2022-10-31T11:57:45.392Z,19.30
2022-10-31T12:03:25.421Z,19.65
2022-10-31T12:06:02.394Z,19.77
2022-10-31T12:08:33.503Z,18.98
2022-10-31T12:11:25.519Z,20.02
2022-10-31T12:14:03.652Z,19.05
2022-10-31T12:16:55.468Z,19.13
2022-10-31T12:19:31.533Z,20.63
2022-10-31T12:22:10.788Z,20.65
2022-10-31T12:24:58.469Z,20.48
2022-10-31T12:28:02.187Z,19.48
2022-10-31T12:30:40.819Z,20.80
2022-10-31T12:33:38.356Z,19.98
2022-10-31T12:36:34.024Z,18.48
2022-10-31T12:39:11.984Z,20.17
2022-10-31T12:41:47.923Z,22.48
2022-10-31T12:44:31.132Z,20.75
2022-10-31T12:47:33.903Z,20.10
2022-10-31T12:52:53.292Z,21.02
2022-10-31T12:55:48.230Z,19.27
2022-10-31T12:58:33.637Z,22.17
2022-10-31T13:01:17.007Z,20.73
2022-10-31T13:03:58.285Z,20.55
2022-10-31T13:06:42.005Z,20.33
2022-10-31T13:09:17.607Z,21.00
2022-10-31T13:11:50.777Z,20.35
2022-10-31T13:14:29.528Z,21.85
2022-10-31T13:16:58.140Z,22.25
2022-10-31T13:19:25.608Z,22.48
2022-10-31T13:22:02.469Z,20.42
2022-10-31T13:24:41.471Z,20.80
2022-10-31T13:27:24.359Z,22.63
2022-10-31T13:29:57.926Z,22.05
2022-10-31T13:32:27.258Z,22.30
2022-10-31T13:34:59.749Z,20.52
2022-10-31T13:37:38.861Z,20.73
2022-10-31T13:40:24.398Z,20.70
2022-10-31T13:43:01.695Z,22.08
2022-10-31T13:45:30.290Z,20.70
2022-10-31T13:48:01.282Z,19.33
2022-10-31T13:50:34.746Z,19.67
2022-10-31T13:53:19.285Z,20.85
2022-10-31T13:55:49.914Z,18.65
2022-10-31T13:58:30.390Z,20.67
2022-10-31T14:01:23.043Z,20.08
2022-10-31T14:04:19.223Z,21.67
2022-10-31T14:06:55.440Z,21.15
2022-10-31T14:09:33.837Z,20.13
2022-10-31T14:12:26.892Z,21.88
2022-10-31T14:14:59.179Z,21.77
2022-10-31T14:17:33.769Z,20.23
2022-10-31T14:20:05.044Z,21.13
2022-10-31T14:22:37.470Z,22.30
2022-10-31T14:25:33.569Z,21.80
2022-10-31T14:28:04.965Z,20.88
2022-10-31T14:30:33.412Z,22.00
2022-10-31T14:33:04.531Z,21.55
2022-10-31T14:35:58.122Z,20.13
2022-10-31T14:38:43.893Z,18.33
2022-10-31T14:41:30.773Z,22.50
2022-10-31T14:44:25.681Z,20.35
2022-10-31T14:49:47.520Z,20.23
2022-10-31T14:52:19.169Z,20.48
2022-10-31T14:54:53.964Z,21.95
2022-10-31T14:57:27.033Z,22.15
2022-10-31T15:00:02.595Z,19.50
2022-10-31T15:02:39.791Z,22.45
2022-10-31T15:05:12.221Z,24.00
2022-10-31T15:08:00.133Z,22.65
2022-10-31T15:10:33.040Z,21.35
2022-10-31T15:13:20.407Z,20.02
2022-10-31T15:15:52.301Z,22.40
2022-10-31T15:20:51.864Z,19.25
2022-10-31T15:23:28.941Z,22.15
2022-10-31T15:26:03.626Z,20.88
2022-10-31T15:28:32.872Z,20.92
2022-10-31T15:31:05.023Z,21.08
2022-10-31T15:36:08.989Z,20.95
2022-10-31T15:38:38.389Z,20.13
2022-10-31T15:41:24.361Z,19.83
2022-10-31T15:43:52.644Z,20.48
2022-10-31T15:46:20.386Z,19.98
2022-10-31T15:48:49.808Z,18.65
2022-10-31T15:51:17.552Z,20.20
2022-10-31T15:53:54.220Z,18.73
2022-10-31T15:56:26.361Z,17.92
2022-10-31T16:01:23.653Z,19.08
2022-10-31T16:04:21.708Z,19.20
2022-10-31T16:07:00.932Z,16.50
2022-10-31T16:09:28.740Z,18.85
2022-10-31T16:12:00.416Z,16.10
2022-10-31T16:14:32.657Z,17.83
2022-10-31T16:19:32.486Z,19.15
2022-10-31T16:22:12.859Z,19.13
2022-10-31T16:24:48.263Z,18.38
2022-10-31T16:27:26.676Z,16.58
2022-10-31T16:29:54.781Z,18.60
2022-10-31T16:32:34.334Z,19.75
2022-10-31T16:35:02.738Z,18.50
2022-10-31T16:37:30.204Z,18.67
2022-10-31T16:39:57.680Z,19.13
2022-10-31T16:42:25.603Z,19.48
2022-10-31T16:44:53.216Z,18.88
2022-10-31T16:47:23.409Z,20.15
2022-10-31T16:49:54.422Z,20.05
2022-10-31T16:52:22.041Z,18.73
2022-10-31T16:54:49.833Z,18.13
2022-10-31T16:57:22.370Z,20.83
2022-10-31T17:02:20.156Z,20.70
2022-10-31T17:04:49.670Z,19.67
2022-10-31T17:07:19.738Z,19.98
2022-10-31T17:09:47.242Z,19.92
2022-10-31T17:12:22.085Z,18.50
2022-10-31T17:14:53.043Z,18.17
2022-10-31T17:17:20.502Z,19.77
2022-10-31T17:19:47.983Z,19.17
2022-10-31T17:22:16.578Z,20.15
2022-10-31T17:24:44.156Z,19.85
2022-10-31T17:27:11.641Z,19.77
2022-10-31T17:29:39.176Z,19.83
2022-10-31T17:32:06.960Z,19.38
2022-10-31T17:34:34.634Z,18.90
2022-10-31T17:37:02.141Z,19.80
2022-10-31T17:39:29.642Z,20.02
2022-10-31T17:41:57.148Z,19.23
2022-10-31T17:44:24.586Z,19.33
2022-10-31T17:46:52.076Z,20.90
2022-10-31T17:49:19.633Z,20.48
2022-10-31T17:51:47.146Z,19.33
2022-10-31T17:54:18.383Z,20.67
2022-10-31T17:56:45.841Z,21.48
2022-10-31T17:59:13.342Z,22.05
2022-10-31T18:01:40.934Z,18.25
2022-10-31T18:04:08.448Z,20.23
2022-10-31T18:06:35.937Z,21.75
2022-10-31T18:09:05.694Z,22.33
2022-10-31T18:11:33.984Z,22.15
2022-10-31T18:14:01.656Z,22.40
2022-10-31T18:16:29.205Z,19.85
2022-10-31T18:19:01.664Z,20.45
2022-10-31T18:21:30.378Z,20.75
2022-10-31T18:23:59.366Z,19.88
2022-10-31T18:26:29.265Z,19.10
2022-10-31T18:28:56.804Z,19.67
2022-10-31T18:31:25.705Z,19.15
2022-10-31T18:33:54.913Z,19.10
2022-10-31T18:36:22.540Z,19.48
2022-10-31T18:38:50.024Z,18.88
2022-10-31T18:41:17.912Z,17.83
2022-10-31T18:43:45.394Z,16.90
2022-10-31T18:46:17.792Z,18.45
2022-10-31T18:48:46.889Z,18.13
2022-10-31T18:51:17.987Z,18.25
2022-10-31T18:53:55.544Z,16.73
2022-10-31T18:56:24.002Z,17.95
2022-10-31T18:58:52.121Z,15.60
2022-10-31T19:01:23.774Z,16.73
2022-10-31T19:03:56.291Z,17.40
2022-10-31T19:06:25.278Z,16.60
2022-10-31T19:08:59.144Z,16.80
2022-10-31T19:11:26.967Z,14.95
2022-10-31T19:13:54.494Z,15.82
2022-10-31T19:16:21.993Z,15.70
2022-10-31T19:18:49.517Z,13.07
2022-10-31T19:21:18.801Z,19.50
2022-10-31T19:23:46.804Z,15.18
2022-10-31T19:26:15.052Z,15.38
2022-10-31T19:28:43.104Z,15.25
2022-10-31T19:31:11.273Z,13.80
2022-10-31T19:33:39.108Z,13.90
2022-10-31T19:36:14.467Z,15.45
2022-10-31T19:38:47.225Z,12.27
2022-10-31T19:41:22.361Z,14.25
2022-10-31T19:43:50.302Z,13.48
2022-10-31T19:46:22.658Z,12.73
2022-10-31T19:48:55.807Z,15.45
2022-10-31T19:51:23.305Z,12.65
2022-10-31T19:53:52.408Z,11.35
2022-10-31T19:56:25.149Z,11.73
2022-10-31T19:58:53.180Z,11.52
2022-10-31T20:01:23.571Z,11.48
2022-10-31T20:03:52.427Z,10.85
2022-10-31T20:06:27.552Z,12.25
2022-10-31T20:08:56.624Z,10.63
2022-10-31T20:11:26.058Z,9.65
2022-10-31T20:13:56.532Z,11.25
2022-10-31T20:16:24.967Z,9.52
2022-10-31T20:18:54.030Z,9.30
2022-10-31T20:21:24.740Z,11.48
2022-10-31T20:24:06.175Z,10.13
2022-10-31T20:26:35.071Z,9.30
2022-10-31T20:29:03.812Z,8.85
2022-10-31T20:31:34.349Z,10.05
2022-10-31T20:34:01.854Z,8.65
2022-10-31T20:36:30.853Z,9.40
2022-10-31T20:38:59.240Z,8.95
2022-10-31T20:41:27.324Z,8.15
2022-10-31T20:43:54.884Z,8.52
2022-10-31T20:46:24.958Z,8.35
2022-10-31T20:48:53.654Z,9.13
2022-10-31T20:51:23.700Z,7.72
2022-10-31T20:53:56.397Z,8.15
2022-10-31T20:56:25.976Z,8.25
2022-10-31T20:58:56.208Z,8.48
2022-10-31T21:01:27.005Z,7.22
2022-10-31T21:03:54.835Z,8.13
2022-10-31T21:06:24.088Z,7.65
2022-10-31T21:08:53.750Z,6.40
2022-10-31T21:11:24.467Z,6.07
2022-10-31T21:13:52.656Z,6.65
2022-10-31T21:16:25.569Z,7.30
2022-10-31T21:18:53.777Z,8.10
2022-10-31T21:21:33.547Z,8.10
2022-10-31T21:24:07.570Z,8.90
2022-10-31T21:26:37.951Z,6.55
2022-10-31T21:29:06.855Z,7.05
2022-10-31T21:31:36.132Z,6.78
2022-10-31T21:34:03.777Z,6.75
2022-10-31T21:36:31.276Z,7.13
2022-10-31T21:38:58.776Z,7.15
2022-10-31T21:41:26.766Z,6.53
2022-10-31T21:43:55.340Z,6.05
2022-10-31T21:46:34.893Z,6.18
2022-10-31T21:49:04.656Z,5.50
2022-10-31T21:51:34.795Z,5.43
2022-10-31T21:54:20.582Z,5.00
2022-10-31T21:56:48.572Z,5.40
2022-10-31T21:59:16.192Z,6.75
2022-10-31T22:01:43.804Z,6.05
2022-10-31T22:04:11.581Z,5.13
2022-10-31T22:06:39.480Z,6.60
2022-10-31T22:09:09.102Z,6.22
2022-10-31T22:11:36.978Z,5.28
2022-10-31T22:14:05.004Z,5.60
2022-10-31T22:16:35.740Z,6.15
2022-10-31T22:19:05.637Z,5.40
2022-10-31T22:21:39.522Z,4.25
2022-10-31T22:24:08.000Z,4.47
2022-10-31T22:26:35.929Z,5.30
2022-10-31T22:29:06.384Z,4.50
2022-10-31T22:31:35.154Z,4.93
2022-10-31T22:34:02.696Z,4.68
2022-10-31T22:36:31.701Z,4.72
2022-10-31T22:39:00.313Z,5.07
2022-10-31T22:41:30.581Z,5.28
2022-10-31T22:43:59.339Z,4.28
2022-10-31T22:46:30.036Z,4.97
2022-10-31T22:49:03.178Z,5.07
2022-10-31T22:51:33.834Z,4.53
2022-10-31T22:54:01.652Z,4.68
2022-10-31T22:56:32.223Z,5.72
2022-10-31T22:59:01.011Z,4.70
2022-10-31T23:01:31.964Z,4.97
2022-10-31T23:04:00.175Z,5.63
2022-10-31T23:06:30.096Z,5.38
2022-10-31T23:08:57.886Z,6.15
2022-10-31T23:11:28.421Z,4.45
2022-10-31T23:14:09.158Z,6.20
2022-10-31T23:16:51.017Z,4.97
2022-10-31T23:19:29.890Z,5.25
2022-10-31T23:22:00.947Z,6.03
2022-10-31T23:24:40.132Z,4.95
2022-10-31T23:27:15.088Z,5.25
2022-10-31T23:29:48.794Z,4.85
2022-10-31T23:32:22.381Z,5.72
2022-10-31T23:34:52.040Z,5.63
2022-10-31T23:37:23.078Z,4.95
2022-10-31T23:39:51.044Z,4.97
2022-10-31T23:42:19.722Z,5.60
2022-10-31T23:44:47.580Z,5.43
2022-10-31T23:47:15.853Z,5.68
2022-10-31T23:49:43.585Z,7.00
2022-10-31T23:52:12.102Z,6.45
2022-10-31T23:54:40.123Z,5.15
2022-10-31T23:57:07.682Z,6.05
2022-10-31T23:59:35.282Z,6.13
